sensor_id;sensor_type;location;lat;lon;timestamp;P1;durP1;ratioP1;P2;durP2;ratioP2
635;SDS011;302;50.206;8.196;2022-10-13T00:02:20;16.87;;;12.63;;
635;SDS011;302;50.206;8.196;2022-10-13T00:04:46;14.10;;;12.77;;
635;SDS011;302;50.206;8.196;2022-10-13T00:07:11;16.52;;;13.60;;
635;SDS011;302;50.206;8.196;2022-10-13T00:09:36;16.17;;;12.88;;
635;SDS011;302;50.206;8.196;2022-10-13T00:12:01;16.17;;;13.07;;
635;SDS011;302;50.206;8.196;2022-10-13T00:14:26;13.80;;;12.20;;
635;SDS011;302;50.206;8.196;2022-10-13T00:16:52;13.70;;;12.27;;
635;SDS011;302;50.206;8.196;2022-10-13T00:19:17;13.90;;;11.93;;
635;SDS011;302;50.206;8.196;2022-10-13T00:21:42;13.30;;;11.90;;
635;SDS011;302;50.206;8.196;2022-10-13T00:24:09;13.90;;;12.40;;
635;SDS011;302;50.206;8.196;2022-10-13T00:26:34;13.98;;;12.57;;
635;SDS011;302;50.206;8.196;2022-10-13T00:28:59;14.80;;;13.02;;
635;SDS011;302;50.206;8.196;2022-10-13T00:31:28;13.68;;;11.90;;
635;SDS011;302;50.206;8.196;2022-10-13T00:33:53;11.75;;;10.65;;
635;SDS011;302;50.206;8.196;2022-10-13T00:36:19;12.63;;;11.47;;
635;SDS011;302;50.206;8.196;2022-10-13T00:38:45;12.80;;;11.40;;
635;SDS011;302;50.206;8.196;2022-10-13T00:41:10;16.20;;;10.10;;
635;SDS011;302;50.206;8.196;2022-10-13T00:46:13;12.85;;;11.52;;
635;SDS011;302;50.206;8.196;2022-10-13T00:48:38;12.60;;;11.30;;
635;SDS011;302;50.206;8.196;2022-10-13T00:51:04;13.10;;;11.17;;
635;SDS011;302;50.206;8.196;2022-10-13T00:53:30;11.70;;;10.27;;
635;SDS011;302;50.206;8.196;2022-10-13T00:55:57;12.57;;;11.27;;
635;SDS011;302;50.206;8.196;2022-10-13T00:58:22;12.33;;;11.13;;
635;SDS011;302;50.206;8.196;2022-10-13T01:00:49;12.77;;;11.50;;
635;SDS011;302;50.206;8.196;2022-10-13T01:03:16;10.93;;;9.82;;
635;SDS011;302;50.206;8.196;2022-10-13T01:05:41;12.38;;;10.57;;
635;SDS011;302;50.206;8.196;2022-10-13T01:08:07;11.33;;;10.23;;
635;SDS011;302;50.206;8.196;2022-10-13T01:10:44;14.05;;;10.10;;
635;SDS011;302;50.206;8.196;2022-10-13T01:13:21;10.68;;;9.68;;
635;SDS011;302;50.206;8.196;2022-10-13T01:15:56;10.20;;;9.20;;
635;SDS011;302;50.206;8.196;2022-10-13T01:31:26;10.38;;;9.40;;
635;SDS011;302;50.206;8.196;2022-10-13T01:34:05;10.70;;;9.70;;
635;SDS011;302;50.206;8.196;2022-10-13T01:39:26;9.98;;;8.98;;
635;SDS011;302;50.206;8.196;2022-10-13T01:41:56;10.52;;;9.05;;
635;SDS011;302;50.206;8.196;2022-10-13T01:44:31;11.10;;;9.98;;
635;SDS011;302;50.206;8.196;2022-10-13T01:46:58;10.70;;;9.60;;
635;SDS011;302;50.206;8.196;2022-10-13T01:49:26;11.63;;;10.35;;
635;SDS011;302;50.206;8.196;2022-10-13T01:51:52;12.82;;;10.93;;
635;SDS011;302;50.206;8.196;2022-10-13T01:54:18;11.80;;;10.60;;
635;SDS011;302;50.206;8.196;2022-10-13T01:56:50;11.18;;;10.18;;
635;SDS011;302;50.206;8.196;2022-10-13T01:59:15;10.95;;;9.77;;
635;SDS011;302;50.206;8.196;2022-10-13T02:06:55;12.10;;;10.93;;
635;SDS011;302;50.206;8.196;2022-10-13T02:11:55;11.75;;;10.65;;
635;SDS011;302;50.206;8.196;2022-10-13T02:14:23;11.13;;;10.02;;
635;SDS011;302;50.206;8.196;2022-10-13T02:16:50;12.75;;;11.45;;
635;SDS011;302;50.206;8.196;2022-10-13T02:19:17;12.45;;;11.20;;
635;SDS011;302;50.206;8.196;2022-10-13T02:21:43;12.50;;;11.20;;
635;SDS011;302;50.206;8.196;2022-10-13T02:24:08;13.07;;;11.57;;
635;SDS011;302;50.206;8.196;2022-10-13T02:26:34;16.60;;;12.10;;
635;SDS011;302;50.206;8.196;2022-10-13T02:29:05;12.40;;;11.15;;
635;SDS011;302;50.206;8.196;2022-10-13T02:31:31;12.60;;;11.30;;
635;SDS011;302;50.206;8.196;2022-10-13T02:33:56;13.67;;;11.30;;
635;SDS011;302;50.206;8.196;2022-10-13T02:36:22;13.00;;;11.30;;
635;SDS011;302;50.206;8.196;2022-10-13T02:38:47;12.97;;;11.30;;
635;SDS011;302;50.206;8.196;2022-10-13T02:41:12;14.73;;;12.25;;
635;SDS011;302;50.206;8.196;2022-10-13T02:43:38;13.03;;;11.47;;
635;SDS011;302;50.206;8.196;2022-10-13T02:46:03;12.93;;;11.63;;
635;SDS011;302;50.206;8.196;2022-10-13T02:48:28;16.67;;;13.20;;
635;SDS011;302;50.206;8.196;2022-10-13T02:50:53;13.23;;;11.87;;
635;SDS011;302;50.206;8.196;2022-10-13T02:53:18;15.00;;;12.73;;
635;SDS011;302;50.206;8.196;2022-10-13T02:55:44;16.35;;;12.65;;
635;SDS011;302;50.206;8.196;2022-10-13T02:58:09;13.70;;;12.27;;
635;SDS011;302;50.206;8.196;2022-10-13T03:00:34;12.90;;;11.60;;
635;SDS011;302;50.206;8.196;2022-10-13T03:02:59;16.77;;;12.90;;
635;SDS011;302;50.206;8.196;2022-10-13T03:05:24;15.60;;;12.80;;
635;SDS011;302;50.206;8.196;2022-10-13T03:07:49;10.93;;;9.93;;
635;SDS011;302;50.206;8.196;2022-10-13T03:10:14;12.40;;;11.10;;
635;SDS011;302;50.206;8.196;2022-10-13T03:12:40;13.17;;;11.77;;
635;SDS011;302;50.206;8.196;2022-10-13T03:15:05;15.55;;;12.35;;
635;SDS011;302;50.206;8.196;2022-10-13T03:17:30;11.00;;;9.90;;
635;SDS011;302;50.206;8.196;2022-10-13T03:19:55;13.40;;;11.63;;
635;SDS011;302;50.206;8.196;2022-10-13T03:22:21;13.70;;;11.67;;
635;SDS011;302;50.206;8.196;2022-10-13T03:24:46;13.18;;;11.27;;
635;SDS011;302;50.206;8.196;2022-10-13T03:27:11;13.83;;;11.80;;
635;SDS011;302;50.206;8.196;2022-10-13T03:29:36;16.87;;;12.93;;
635;SDS011;302;50.206;8.196;2022-10-13T03:32:01;13.47;;;12.23;;
635;SDS011;302;50.206;8.196;2022-10-13T03:34:26;15.23;;;13.63;;
635;SDS011;302;50.206;8.196;2022-10-13T03:36:51;18.60;;;14.30;;
635;SDS011;302;50.206;8.196;2022-10-13T03:39:17;15.47;;;13.30;;
635;SDS011;302;50.206;8.196;2022-10-13T03:41:42;16.33;;;12.90;;
635;SDS011;302;50.206;8.196;2022-10-13T03:44:09;15.03;;;13.43;;
635;SDS011;302;50.206;8.196;2022-10-13T03:46:35;15.70;;;14.10;;
635;SDS011;302;50.206;8.196;2022-10-13T03:49:00;14.97;;;13.57;;
635;SDS011;302;50.206;8.196;2022-10-13T03:51:25;14.80;;;13.27;;
635;SDS011;302;50.206;8.196;2022-10-13T03:53:51;15.87;;;12.10;;
635;SDS011;302;50.206;8.196;2022-10-13T03:56:17;16.00;;;14.30;;
635;SDS011;302;50.206;8.196;2022-10-13T03:58:43;15.38;;;13.75;;
635;SDS011;302;50.206;8.196;2022-10-13T04:01:09;15.47;;;13.80;;
635;SDS011;302;50.206;8.196;2022-10-13T04:03:34;14.93;;;13.38;;
635;SDS011;302;50.206;8.196;2022-10-13T04:06:00;15.10;;;12.30;;
635;SDS011;302;50.206;8.196;2022-10-13T04:08:26;14.82;;;11.80;;
635;SDS011;302;50.206;8.196;2022-10-13T04:11:01;13.00;;;11.70;;
635;SDS011;302;50.206;8.196;2022-10-13T04:13:27;13.45;;;10.80;;
635;SDS011;302;50.206;8.196;2022-10-13T04:15:52;14.90;;;12.00;;
635;SDS011;302;50.206;8.196;2022-10-13T04:18:17;13.37;;;11.87;;
635;SDS011;302;50.206;8.196;2022-10-13T04:20:42;14.60;;;12.60;;
635;SDS011;302;50.206;8.196;2022-10-13T04:23:07;13.43;;;11.97;;
635;SDS011;302;50.206;8.196;2022-10-13T04:25:33;13.90;;;12.27;;
635;SDS011;302;50.206;8.196;2022-10-13T04:27:58;13.70;;;11.35;;
635;SDS011;302;50.206;8.196;2022-10-13T04:30:24;12.70;;;10.20;;
635;SDS011;302;50.206;8.196;2022-10-13T04:32:49;11.40;;;10.20;;
635;SDS011;302;50.206;8.196;2022-10-13T04:35:14;13.75;;;11.35;;
635;SDS011;302;50.206;8.196;2022-10-13T04:37:39;13.70;;;11.45;;
635;SDS011;302;50.206;8.196;2022-10-13T04:40:04;12.18;;;10.07;;
635;SDS011;302;50.206;8.196;2022-10-13T04:42:30;12.83;;;11.53;;
635;SDS011;302;50.206;8.196;2022-10-13T04:44:55;16.52;;;12.13;;
635;SDS011;302;50.206;8.196;2022-10-13T04:47:20;14.10;;;11.63;;
635;SDS011;302;50.206;8.196;2022-10-13T04:49:45;13.27;;;10.45;;
635;SDS011;302;50.206;8.196;2022-10-13T04:52:10;12.77;;;11.47;;
635;SDS011;302;50.206;8.196;2022-10-13T04:54:36;14.80;;;11.82;;
635;SDS011;302;50.206;8.196;2022-10-13T04:57:01;14.53;;;11.80;;
635;SDS011;302;50.206;8.196;2022-10-13T04:59:26;13.20;;;10.77;;
635;SDS011;302;50.206;8.196;2022-10-13T05:01:51;16.57;;;12.50;;
635;SDS011;302;50.206;8.196;2022-10-13T05:04:16;13.80;;;12.15;;
635;SDS011;302;50.206;8.196;2022-10-13T05:06:42;13.43;;;12.10;;
635;SDS011;302;50.206;8.196;2022-10-13T05:09:08;14.97;;;12.47;;
635;SDS011;302;50.206;8.196;2022-10-13T05:11:33;17.63;;;13.32;;
635;SDS011;302;50.206;8.196;2022-10-13T05:13:58;19.10;;;12.50;;
635;SDS011;302;50.206;8.196;2022-10-13T05:16:25;12.38;;;11.07;;
635;SDS011;302;50.206;8.196;2022-10-13T05:18:53;14.20;;;11.37;;
635;SDS011;302;50.206;8.196;2022-10-13T05:21:20;13.98;;;11.85;;
635;SDS011;302;50.206;8.196;2022-10-13T05:23:46;16.25;;;13.38;;
635;SDS011;302;50.206;8.196;2022-10-13T05:26:12;14.30;;;12.00;;
635;SDS011;302;50.206;8.196;2022-10-13T05:28:38;14.93;;;11.88;;
635;SDS011;302;50.206;8.196;2022-10-13T05:31:20;13.20;;;11.87;;
635;SDS011;302;50.206;8.196;2022-10-13T05:33:46;13.27;;;11.02;;
635;SDS011;302;50.206;8.196;2022-10-13T05:36:13;11.85;;;10.65;;
635;SDS011;302;50.206;8.196;2022-10-13T05:38:38;14.00;;;11.27;;
635;SDS011;302;50.206;8.196;2022-10-13T05:41:07;12.20;;;10.87;;
635;SDS011;302;50.206;8.196;2022-10-13T05:43:33;12.82;;;11.55;;
635;SDS011;302;50.206;8.196;2022-10-13T05:45:59;12.40;;;10.30;;
635;SDS011;302;50.206;8.196;2022-10-13T05:48:24;13.73;;;11.13;;
635;SDS011;302;50.206;8.196;2022-10-13T05:50:49;11.83;;;10.00;;
635;SDS011;302;50.206;8.196;2022-10-13T05:53:14;11.90;;;10.70;;
635;SDS011;302;50.206;8.196;2022-10-13T05:55:39;12.00;;;10.70;;
635;SDS011;302;50.206;8.196;2022-10-13T05:58:05;12.90;;;10.60;;
635;SDS011;302;50.206;8.196;2022-10-13T06:00:30;11.90;;;10.00;;
635;SDS011;302;50.206;8.196;2022-10-13T06:02:57;13.90;;;11.00;;
635;SDS011;302;50.206;8.196;2022-10-13T06:05:23;12.80;;;10.52;;
635;SDS011;302;50.206;8.196;2022-10-13T06:07:49;12.10;;;10.60;;
635;SDS011;302;50.206;8.196;2022-10-13T06:10:14;11.20;;;10.07;;
635;SDS011;302;50.206;8.196;2022-10-13T06:12:40;12.03;;;10.50;;
635;SDS011;302;50.206;8.196;2022-10-13T06:15:05;15.50;;;11.27;;
635;SDS011;302;50.206;8.196;2022-10-13T06:17:30;13.87;;;10.23;;
635;SDS011;302;50.206;8.196;2022-10-13T06:19:56;11.63;;;10.10;;
635;SDS011;302;50.206;8.196;2022-10-13T06:22:21;11.67;;;10.37;;
635;SDS011;302;50.206;8.196;2022-10-13T06:24:46;12.63;;;11.07;;
635;SDS011;302;50.206;8.196;2022-10-13T06:27:11;11.90;;;10.70;;
635;SDS011;302;50.206;8.196;2022-10-13T06:29:37;14.33;;;11.03;;
635;SDS011;302;50.206;8.196;2022-10-13T06:32:02;10.93;;;9.83;;
635;SDS011;302;50.206;8.196;2022-10-13T06:34:27;13.00;;;11.60;;
635;SDS011;302;50.206;8.196;2022-10-13T06:36:52;12.60;;;10.97;;
635;SDS011;302;50.206;8.196;2022-10-13T06:39:17;12.73;;;11.10;;
635;SDS011;302;50.206;8.196;2022-10-13T06:41:43;13.00;;;11.53;;
635;SDS011;302;50.206;8.196;2022-10-13T06:44:08;12.80;;;10.17;;
635;SDS011;302;50.206;8.196;2022-10-13T06:46:33;11.37;;;10.27;;
635;SDS011;302;50.206;8.196;2022-10-13T06:48:59;15.40;;;13.47;;
635;SDS011;302;50.206;8.196;2022-10-13T06:51:24;20.07;;;15.67;;
635;SDS011;302;50.206;8.196;2022-10-13T06:53:49;13.73;;;12.27;;
635;SDS011;302;50.206;8.196;2022-10-13T06:56:14;14.17;;;12.67;;
635;SDS011;302;50.206;8.196;2022-10-13T06:58:40;17.27;;;11.80;;
635;SDS011;302;50.206;8.196;2022-10-13T07:01:05;17.07;;;13.50;;
635;SDS011;302;50.206;8.196;2022-10-13T07:03:30;15.50;;;13.07;;
635;SDS011;302;50.206;8.196;2022-10-13T07:06:02;13.77;;;11.70;;
635;SDS011;302;50.206;8.196;2022-10-13T07:08:28;16.65;;;12.38;;
635;SDS011;302;50.206;8.196;2022-10-13T07:10:53;13.30;;;11.17;;
635;SDS011;302;50.206;8.196;2022-10-13T07:13:18;14.50;;;10.57;;
635;SDS011;302;50.206;8.196;2022-10-13T07:15:43;12.65;;;10.90;;
635;SDS011;302;50.206;8.196;2022-10-13T07:18:09;12.43;;;10.02;;
635;SDS011;302;50.206;8.196;2022-10-13T07:20:34;12.77;;;11.00;;
635;SDS011;302;50.206;8.196;2022-10-13T07:22:59;12.97;;;9.90;;
635;SDS011;302;50.206;8.196;2022-10-13T07:25:24;11.10;;;9.87;;
635;SDS011;302;50.206;8.196;2022-10-13T07:27:50;14.73;;;9.67;;
635;SDS011;302;50.206;8.196;2022-10-13T07:30:15;15.20;;;11.07;;
635;SDS011;302;50.206;8.196;2022-10-13T07:32:40;12.37;;;10.77;;
635;SDS011;302;50.206;8.196;2022-10-13T07:35:07;11.63;;;10.43;;
635;SDS011;302;50.206;8.196;2022-10-13T07:37:32;12.05;;;10.65;;
635;SDS011;302;50.206;8.196;2022-10-13T07:39:57;15.87;;;11.50;;
635;SDS011;302;50.206;8.196;2022-10-13T07:42:24;14.63;;;10.05;;
635;SDS011;302;50.206;8.196;2022-10-13T07:44:49;11.43;;;10.23;;
635;SDS011;302;50.206;8.196;2022-10-13T07:47:14;13.50;;;11.70;;
635;SDS011;302;50.206;8.196;2022-10-13T07:49:39;13.13;;;11.50;;
635;SDS011;302;50.206;8.196;2022-10-13T07:52:05;12.15;;;10.63;;
635;SDS011;302;50.206;8.196;2022-10-13T07:54:30;11.27;;;10.17;;
635;SDS011;302;50.206;8.196;2022-10-13T07:56:55;13.97;;;10.53;;
635;SDS011;302;50.206;8.196;2022-10-13T07:59:20;10.10;;;9.10;;
635;SDS011;302;50.206;8.196;2022-10-13T08:01:46;13.73;;;11.07;;
635;SDS011;302;50.206;8.196;2022-10-13T08:04:11;14.90;;;11.50;;
635;SDS011;302;50.206;8.196;2022-10-13T08:06:37;13.17;;;11.70;;
635;SDS011;302;50.206;8.196;2022-10-13T08:09:02;14.63;;;9.93;;
635;SDS011;302;50.206;8.196;2022-10-13T08:11:28;12.00;;;10.80;;
635;SDS011;302;50.206;8.196;2022-10-13T08:13:53;12.53;;;10.20;;
635;SDS011;302;50.206;8.196;2022-10-13T08:16:20;12.93;;;10.90;;
635;SDS011;302;50.206;8.196;2022-10-13T08:18:45;13.00;;;11.60;;
635;SDS011;302;50.206;8.196;2022-10-13T08:21:11;12.30;;;10.40;;
635;SDS011;302;50.206;8.196;2022-10-13T08:23:37;12.00;;;10.80;;
635;SDS011;302;50.206;8.196;2022-10-13T08:26:02;17.80;;;12.07;;
635;SDS011;302;50.206;8.196;2022-10-13T08:28:27;13.13;;;9.97;;
635;SDS011;302;50.206;8.196;2022-10-13T08:30:53;12.87;;;10.63;;
635;SDS011;302;50.206;8.196;2022-10-13T08:33:21;16.60;;;12.05;;
635;SDS011;302;50.206;8.196;2022-10-13T08:35:46;14.10;;;12.30;;
635;SDS011;302;50.206;8.196;2022-10-13T08:38:11;18.57;;;14.13;;
635;SDS011;302;50.206;8.196;2022-10-13T08:40:37;15.50;;;13.40;;
635;SDS011;302;50.206;8.196;2022-10-13T08:43:06;16.60;;;13.17;;
635;SDS011;302;50.206;8.196;2022-10-13T08:45:31;15.93;;;13.32;;
635;SDS011;302;50.206;8.196;2022-10-13T08:48:01;18.70;;;14.10;;
635;SDS011;302;50.206;8.196;2022-10-13T08:50:28;17.98;;;14.10;;
635;SDS011;302;50.206;8.196;2022-10-13T08:52:55;17.13;;;14.32;;
635;SDS011;302;50.206;8.196;2022-10-13T08:55:29;18.70;;;14.63;;
635;SDS011;302;50.206;8.196;2022-10-13T08:57:56;21.08;;;14.32;;
635;SDS011;302;50.206;8.196;2022-10-13T09:00:21;15.77;;;12.90;;
635;SDS011;302;50.206;8.196;2022-10-13T09:02:46;17.00;;;13.60;;
635;SDS011;302;50.206;8.196;2022-10-13T09:05:14;16.90;;;13.60;;
635;SDS011;302;50.206;8.196;2022-10-13T09:07:40;18.13;;;15.30;;
635;SDS011;302;50.206;8.196;2022-10-13T09:10:07;17.17;;;14.00;;
635;SDS011;302;50.206;8.196;2022-10-13T09:12:33;17.70;;;15.80;;
635;SDS011;302;50.206;8.196;2022-10-13T09:15:08;17.87;;;15.97;;
635;SDS011;302;50.206;8.196;2022-10-13T09:17:35;19.90;;;14.98;;
635;SDS011;302;50.206;8.196;2022-10-13T09:22:41;16.63;;;13.88;;
635;SDS011;302;50.206;8.196;2022-10-13T09:25:07;18.60;;;16.03;;
635;SDS011;302;50.206;8.196;2022-10-13T09:30:18;21.02;;;16.30;;
635;SDS011;302;50.206;8.196;2022-10-13T09:32:49;19.20;;;16.50;;
635;SDS011;302;50.206;8.196;2022-10-13T09:35:20;19.63;;;15.48;;
635;SDS011;302;50.206;8.196;2022-10-13T09:37:47;22.08;;;16.60;;
635;SDS011;302;50.206;8.196;2022-10-13T09:40:25;17.67;;;14.07;;
635;SDS011;302;50.206;8.196;2022-10-13T09:42:54;19.30;;;15.70;;
635;SDS011;302;50.206;8.196;2022-10-13T09:45:20;16.83;;;14.63;;
635;SDS011;302;50.206;8.196;2022-10-13T09:47:54;16.60;;;14.90;;
635;SDS011;302;50.206;8.196;2022-10-13T09:50:22;20.52;;;15.60;;
635;SDS011;302;50.206;8.196;2022-10-13T09:52:48;15.20;;;13.55;;
635;SDS011;302;50.206;8.196;2022-10-13T09:55:33;17.47;;;14.60;;
635;SDS011;302;50.206;8.196;2022-10-13T09:58:03;18.38;;;15.20;;
635;SDS011;302;50.206;8.196;2022-10-13T10:00:30;17.90;;;14.15;;
635;SDS011;302;50.206;8.196;2022-10-13T10:03:15;19.57;;;14.37;;
635;SDS011;302;50.206;8.196;2022-10-13T10:06:00;15.52;;;13.85;;
635;SDS011;302;50.206;8.196;2022-10-13T10:10:52;15.87;;;14.20;;
635;SDS011;302;50.206;8.196;2022-10-13T10:13:17;15.87;;;14.13;;
635;SDS011;302;50.206;8.196;2022-10-13T10:15:55;16.23;;;13.20;;
635;SDS011;302;50.206;8.196;2022-10-13T10:23:26;15.95;;;14.00;;
635;SDS011;302;50.206;8.196;2022-10-13T10:25:56;14.57;;;12.93;;
635;SDS011;302;50.206;8.196;2022-10-13T10:28:44;13.13;;;11.27;;
635;SDS011;302;50.206;8.196;2022-10-13T10:36:46;16.27;;;12.70;;
635;SDS011;302;50.206;8.196;2022-10-13T10:39:21;15.55;;;12.07;;
635;SDS011;302;50.206;8.196;2022-10-13T10:42:05;13.18;;;11.77;;
635;SDS011;302;50.206;8.196;2022-10-13T10:44:37;16.13;;;11.90;;
635;SDS011;302;50.206;8.196;2022-10-13T10:47:05;16.67;;;13.43;;
635;SDS011;302;50.206;8.196;2022-10-13T10:49:32;15.93;;;13.82;;
635;SDS011;302;50.206;8.196;2022-10-13T10:51:58;16.83;;;13.52;;
635;SDS011;302;50.206;8.196;2022-10-13T10:56:57;14.43;;;12.85;;
635;SDS011;302;50.206;8.196;2022-10-13T11:04:32;14.10;;;12.57;;
635;SDS011;302;50.206;8.196;2022-10-13T11:07:02;16.55;;;13.88;;
635;SDS011;302;50.206;8.196;2022-10-13T11:12:20;14.35;;;12.50;;
635;SDS011;302;50.206;8.196;2022-10-13T11:19:48;13.73;;;12.32;;
635;SDS011;302;50.206;8.196;2022-10-13T11:22:14;11.20;;;10.10;;
635;SDS011;302;50.206;8.196;2022-10-13T11:37:34;11.73;;;8.90;;
635;SDS011;302;50.206;8.196;2022-10-13T11:42:35;12.48;;;8.43;;
635;SDS011;302;50.206;8.196;2022-10-13T11:45:14;9.30;;;8.25;;
635;SDS011;302;50.206;8.196;2022-10-13T11:47:50;8.98;;;8.02;;
635;SDS011;302;50.206;8.196;2022-10-13T11:58:11;9.13;;;8.32;;
635;SDS011;302;50.206;8.196;2022-10-13T12:00:47;8.60;;;7.65;;
635;SDS011;302;50.206;8.196;2022-10-13T12:03:18;9.63;;;8.73;;
635;SDS011;302;50.206;8.196;2022-10-13T12:05:43;11.05;;;9.52;;
635;SDS011;302;50.206;8.196;2022-10-13T12:08:11;10.05;;;8.85;;
635;SDS011;302;50.206;8.196;2022-10-13T12:10:36;9.27;;;8.27;;
635;SDS011;302;50.206;8.196;2022-10-13T12:13:03;9.52;;;8.25;;
635;SDS011;302;50.206;8.196;2022-10-13T12:17:57;9.18;;;8.27;;
635;SDS011;302;50.206;8.196;2022-10-13T12:20:23;11.00;;;9.50;;
635;SDS011;302;50.206;8.196;2022-10-13T12:22:49;14.25;;;9.35;;
635;SDS011;302;50.206;8.196;2022-10-13T12:25:15;11.27;;;9.33;;
635;SDS011;302;50.206;8.196;2022-10-13T12:27:43;11.52;;;9.25;;
635;SDS011;302;50.206;8.196;2022-10-13T12:33:18;12.15;;;9.93;;
635;SDS011;302;50.206;8.196;2022-10-13T12:35:44;16.15;;;11.02;;
635;SDS011;302;50.206;8.196;2022-10-13T12:38:14;11.13;;;9.90;;
635;SDS011;302;50.206;8.196;2022-10-13T12:40:41;10.90;;;9.80;;
635;SDS011;302;50.206;8.196;2022-10-13T12:43:06;14.70;;;10.90;;
635;SDS011;302;50.206;8.196;2022-10-13T12:45:32;10.30;;;9.40;;
635;SDS011;302;50.206;8.196;2022-10-13T12:47:57;11.67;;;10.47;;
635;SDS011;302;50.206;8.196;2022-10-13T12:52:54;13.38;;;12.13;;
635;SDS011;302;50.206;8.196;2022-10-13T12:55:20;12.40;;;11.10;;
635;SDS011;302;50.206;8.196;2022-10-13T12:57:47;11.03;;;9.97;;
635;SDS011;302;50.206;8.196;2022-10-13T13:03:00;13.18;;;11.48;;
635;SDS011;302;50.206;8.196;2022-10-13T13:05:29;10.75;;;9.68;;
635;SDS011;302;50.206;8.196;2022-10-13T13:07:55;12.30;;;10.98;;
635;SDS011;302;50.206;8.196;2022-10-13T13:10:20;11.37;;;10.20;;
635;SDS011;302;50.206;8.196;2022-10-13T13:12:46;11.20;;;9.40;;
635;SDS011;302;50.206;8.196;2022-10-13T13:17:43;10.43;;;9.43;;
635;SDS011;302;50.206;8.196;2022-10-13T13:20:26;15.40;;;11.05;;
635;SDS011;302;50.206;8.196;2022-10-13T13:22:51;10.40;;;9.30;;
635;SDS011;302;50.206;8.196;2022-10-13T13:25:17;13.03;;;9.80;;
635;SDS011;302;50.206;8.196;2022-10-13T13:27:42;11.57;;;7.73;;
635;SDS011;302;50.206;8.196;2022-10-13T13:30:11;11.73;;;8.97;;
635;SDS011;302;50.206;8.196;2022-10-13T13:32:36;10.18;;;8.65;;
635;SDS011;302;50.206;8.196;2022-10-13T13:35:02;10.40;;;9.43;;
635;SDS011;302;50.206;8.196;2022-10-13T13:37:34;11.23;;;10.13;;
635;SDS011;302;50.206;8.196;2022-10-13T13:40:01;12.98;;;9.90;;
635;SDS011;302;50.206;8.196;2022-10-13T13:42:27;9.95;;;8.95;;
635;SDS011;302;50.206;8.196;2022-10-13T13:44:52;10.60;;;9.50;;
635;SDS011;302;50.206;8.196;2022-10-13T13:49:43;15.50;;;11.13;;
635;SDS011;302;50.206;8.196;2022-10-13T13:52:08;12.10;;;10.90;;
635;SDS011;302;50.206;8.196;2022-10-13T13:54:33;12.07;;;10.45;;
635;SDS011;302;50.206;8.196;2022-10-13T13:56:59;12.07;;;10.30;;
635;SDS011;302;50.206;8.196;2022-10-13T13:59:24;11.80;;;10.60;;
635;SDS011;302;50.206;8.196;2022-10-13T14:01:49;12.27;;;10.97;;
635;SDS011;302;50.206;8.196;2022-10-13T14:04:14;12.77;;;11.57;;
635;SDS011;302;50.206;8.196;2022-10-13T14:06:39;11.27;;;10.25;;
635;SDS011;302;50.206;8.196;2022-10-13T14:09:04;12.63;;;11.30;;
635;SDS011;302;50.206;8.196;2022-10-13T14:11:29;13.07;;;11.73;;
635;SDS011;302;50.206;8.196;2022-10-13T14:13:55;13.17;;;10.47;;
635;SDS011;302;50.206;8.196;2022-10-13T14:16:22;13.40;;;11.65;;
635;SDS011;302;50.206;8.196;2022-10-13T14:18:47;12.83;;;11.53;;
635;SDS011;302;50.206;8.196;2022-10-13T14:21:12;12.03;;;10.83;;
635;SDS011;302;50.206;8.196;2022-10-13T14:23:37;11.30;;;10.13;;
635;SDS011;302;50.206;8.196;2022-10-13T14:26:04;12.10;;;10.80;;
635;SDS011;302;50.206;8.196;2022-10-13T14:28:29;12.75;;;9.90;;
635;SDS011;302;50.206;8.196;2022-10-13T14:30:55;11.13;;;10.03;;
635;SDS011;302;50.206;8.196;2022-10-13T14:33:20;12.50;;;11.03;;
635;SDS011;302;50.206;8.196;2022-10-13T14:35:45;12.73;;;11.43;;
635;SDS011;302;50.206;8.196;2022-10-13T14:38:10;18.20;;;16.53;;
635;SDS011;302;50.206;8.196;2022-10-13T14:40:39;12.57;;;11.37;;
635;SDS011;302;50.206;8.196;2022-10-13T14:43:04;10.90;;;10.00;;
635;SDS011;302;50.206;8.196;2022-10-13T14:45:29;11.67;;;10.47;;
635;SDS011;302;50.206;8.196;2022-10-13T14:47:54;12.00;;;10.77;;
635;SDS011;302;50.206;8.196;2022-10-13T14:50:19;10.37;;;9.30;;
635;SDS011;302;50.206;8.196;2022-10-13T14:52:45;10.70;;;9.70;;
635;SDS011;302;50.206;8.196;2022-10-13T14:55:10;10.50;;;9.50;;
635;SDS011;302;50.206;8.196;2022-10-13T14:57:36;11.68;;;10.45;;
635;SDS011;302;50.206;8.196;2022-10-13T15:00:02;10.68;;;9.63;;
635;SDS011;302;50.206;8.196;2022-10-13T15:02:27;11.77;;;10.70;;
635;SDS011;302;50.206;8.196;2022-10-13T15:04:52;13.87;;;10.17;;
635;SDS011;302;50.206;8.196;2022-10-13T15:07:18;11.27;;;10.13;;
635;SDS011;302;50.206;8.196;2022-10-13T15:09:43;11.23;;;10.17;;
635;SDS011;302;50.206;8.196;2022-10-13T15:12:08;10.53;;;9.60;;
635;SDS011;302;50.206;8.196;2022-10-13T15:14:33;10.98;;;9.98;;
635;SDS011;302;50.206;8.196;2022-10-13T15:16:59;10.82;;;9.82;;
635;SDS011;302;50.206;8.196;2022-10-13T15:19:24;11.43;;;10.20;;
635;SDS011;302;50.206;8.196;2022-10-13T15:21:49;12.73;;;11.43;;
635;SDS011;302;50.206;8.196;2022-10-13T15:24:15;11.35;;;9.98;;
635;SDS011;302;50.206;8.196;2022-10-13T15:26:41;10.48;;;9.43;;
635;SDS011;302;50.206;8.196;2022-10-13T15:29:06;10.40;;;9.50;;
635;SDS011;302;50.206;8.196;2022-10-13T15:31:31;9.90;;;8.90;;
635;SDS011;302;50.206;8.196;2022-10-13T15:33:56;10.13;;;9.13;;
635;SDS011;302;50.206;8.196;2022-10-13T15:36:22;10.20;;;9.03;;
635;SDS011;302;50.206;8.196;2022-10-13T15:38:47;8.80;;;7.90;;
635;SDS011;302;50.206;8.196;2022-10-13T15:41:12;10.27;;;8.60;;
635;SDS011;302;50.206;8.196;2022-10-13T15:43:38;9.70;;;8.80;;
635;SDS011;302;50.206;8.196;2022-10-13T15:46:04;10.80;;;9.70;;
635;SDS011;302;50.206;8.196;2022-10-13T15:48:30;11.30;;;9.70;;
635;SDS011;302;50.206;8.196;2022-10-13T15:50:55;11.17;;;9.97;;
635;SDS011;302;50.206;8.196;2022-10-13T15:53:20;11.87;;;10.67;;
635;SDS011;302;50.206;8.196;2022-10-13T15:55:46;11.67;;;10.00;;
635;SDS011;302;50.206;8.196;2022-10-13T15:58:11;12.10;;;10.77;;
635;SDS011;302;50.206;8.196;2022-10-13T16:00:37;11.60;;;10.40;;
635;SDS011;302;50.206;8.196;2022-10-13T16:03:02;15.03;;;13.20;;
635;SDS011;302;50.206;8.196;2022-10-13T16:05:28;17.17;;;14.23;;
635;SDS011;302;50.206;8.196;2022-10-13T16:07:54;13.20;;;12.05;;
635;SDS011;302;50.206;8.196;2022-10-13T16:10:20;15.67;;;13.97;;
635;SDS011;302;50.206;8.196;2022-10-13T16:12:49;16.15;;;14.27;;
635;SDS011;302;50.206;8.196;2022-10-13T16:15:14;16.17;;;14.57;;
635;SDS011;302;50.206;8.196;2022-10-13T16:17:39;16.90;;;15.30;;
635;SDS011;302;50.206;8.196;2022-10-13T16:20:05;16.67;;;14.87;;
635;SDS011;302;50.206;8.196;2022-10-13T16:22:30;16.33;;;14.40;;
635;SDS011;302;50.206;8.196;2022-10-13T16:24:56;23.87;;;16.80;;
635;SDS011;302;50.206;8.196;2022-10-13T16:27:21;18.40;;;16.50;;
635;SDS011;302;50.206;8.196;2022-10-13T16:29:47;18.48;;;16.58;;
635;SDS011;302;50.206;8.196;2022-10-13T16:32:13;21.50;;;18.77;;
635;SDS011;302;50.206;8.196;2022-10-13T16:34:38;20.03;;;17.87;;
635;SDS011;302;50.206;8.196;2022-10-13T16:37:03;20.50;;;18.30;;
635;SDS011;302;50.206;8.196;2022-10-13T16:39:28;19.83;;;16.65;;
635;SDS011;302;50.206;8.196;2022-10-13T16:41:53;21.10;;;18.90;;
635;SDS011;302;50.206;8.196;2022-10-13T16:44:19;22.20;;;18.77;;
635;SDS011;302;50.206;8.196;2022-10-13T16:46:44;19.98;;;18.08;;
635;SDS011;302;50.206;8.196;2022-10-13T16:49:10;20.77;;;18.67;;
635;SDS011;302;50.206;8.196;2022-10-13T16:51:35;20.30;;;18.20;;
635;SDS011;302;50.206;8.196;2022-10-13T16:54:00;20.00;;;17.90;;
635;SDS011;302;50.206;8.196;2022-10-13T16:56:26;20.48;;;18.23;;